Time;durP1;ratioP1;P1;durP2;ratioP2;P2;SDS_P1;SDS_P2;PMS_P1;PMS_P2;Temp;Humidity;BMP_temperature;BMP_pressure;BME280_temperature;BME280_humidity;BME280_pressure;Samples;Min_cycle;Max_cycle;Signal;HPM_P1;HPM_P2
2022/12/20 00:01:24;;;;;;;7.95;4.50;;;9.20;99.90;;;;;;5056219;28;20535;-62
2022/12/20 00:03:51;;;;;;;10.43;5.00;;;9.20;99.90;;;;;;5074582;28;20037;-62
2022/12/20 00:06:17;;;;;;;8.15;4.40;;;9.10;99.90;;;;;;5056778;28;20082;-62
2022/12/20 00:08:44;;;;;;;10.77;5.50;;;9.20;99.90;;;;;;5063600;28;20448;-62
2022/12/20 00:11:10;;;;;;;7.97;4.78;;;9.20;99.90;;;;;;5073201;28;20478;-62
2022/12/20 00:13:36;;;;;;;12.13;4.60;;;9.20;99.90;;;;;;5074769;28;20090;-62
2022/12/20 00:16:06;;;;;;;7.95;4.82;;;9.20;99.90;;;;;;5073742;28;20044;-62
2022/12/20 00:18:32;;;;;;;8.52;4.25;;;9.20;99.90;;;;;;5073432;28;20048;-62
2022/12/20 00:21:02;;;;;;;10.60;4.63;;;9.20;99.90;;;;;;5074532;28;20041;-62
2022/12/20 00:23:30;;;;;;;7.57;4.47;;;9.20;99.90;;;;;;5072212;28;20093;-62
2022/12/20 00:26:06;;;;;;;8.60;4.88;;;9.20;99.90;;;;;;5056134;28;20052;-62
2022/12/20 00:28:33;;;;;;;8.07;4.60;;;9.20;99.90;;;;;;5073141;28;20062;-62
2022/12/20 00:30:59;;;;;;;6.65;4.03;;;9.20;99.90;;;;;;5072076;28;20051;-62
2022/12/20 00:33:25;;;;;;;9.70;4.47;;;9.20;99.90;;;;;;5065434;28;20034;-62
2022/12/20 00:35:51;;;;;;;7.40;4.38;;;9.30;99.90;;;;;;5056377;28;20048;-62
2022/12/20 00:38:16;;;;;;;8.65;4.97;;;9.30;99.90;;;;;;5055120;28;20037;-62
2022/12/20 00:40:42;;;;;;;10.88;4.93;;;9.20;99.90;;;;;;5072922;28;20102;-62
2022/12/20 00:43:08;;;;;;;8.27;4.30;;;9.20;99.90;;;;;;5056200;28;20059;-62
2022/12/20 00:45:33;;;;;;;8.65;4.28;;;9.20;99.90;;;;;;5055550;28;20113;-62
2022/12/20 00:47:59;;;;;;;10.35;4.30;;;9.20;99.90;;;;;;5063326;28;20071;-62
2022/12/20 00:50:25;;;;;;;9.30;4.78;;;9.20;99.90;;;;;;5035873;28;20375;-62
2022/12/20 00:52:50;;;;;;;7.07;4.32;;;9.20;99.90;;;;;;5035420;28;20546;-63
2022/12/20 00:55:16;;;;;;;8.00;5.07;;;9.20;99.90;;;;;;5053625;28;20077;-62
2022/12/20 00:57:41;;;;;;;7.10;4.40;;;9.20;99.90;;;;;;5045557;28;20047;-62
2022/12/20 01:00:08;;;;;;;10.13;4.35;;;9.20;99.90;;;;;;5073539;28;20048;-62
2022/12/20 01:02:33;;;;;;;7.55;4.30;;;9.20;99.90;;;;;;5073483;28;20561;-62
2022/12/20 01:04:59;;;;;;;11.50;4.72;;;9.20;99.90;;;;;;5071389;28;20132;-62
2022/12/20 01:07:25;;;;;;;8.43;4.45;;;9.20;99.90;;;;;;5072027;28;20131;-62
2022/12/20 01:09:51;;;;;;;7.03;4.53;;;9.20;99.90;;;;;;5072148;28;20114;-62
2022/12/20 01:12:16;;;;;;;8.35;4.75;;;9.20;99.90;;;;;;5071467;28;20041;-62
2022/12/20 01:14:42;;;;;;;8.45;3.65;;;9.20;99.90;;;;;;5072173;28;20037;-63
2022/12/20 01:17:08;;;;;;;6.75;3.70;;;9.20;99.90;;;;;;5055093;28;20037;-62
2022/12/20 01:19:34;;;;;;;6.75;3.97;;;9.20;99.90;;;;;;5071407;28;20044;-62
2022/12/20 01:21:59;;;;;;;9.55;4.47;;;9.10;99.90;;;;;;5071801;28;20398;-62
2022/12/20 01:24:25;;;;;;;8.13;4.70;;;9.20;99.90;;;;;;5071685;28;20049;-62
2022/12/20 01:26:51;;;;;;;10.05;4.53;;;9.20;99.90;;;;;;5071962;28;20113;-62
2022/12/20 01:29:17;;;;;;;8.13;4.22;;;9.20;99.90;;;;;;5072779;28;20051;-62
2022/12/20 01:31:42;;;;;;;10.55;4.82;;;9.20;99.90;;;;;;5072872;28;20458;-63
2022/12/20 01:34:08;;;;;;;7.05;4.28;;;9.10;99.90;;;;;;5054445;28;20040;-62
2022/12/20 01:36:37;;;;;;;7.15;4.00;;;9.10;99.90;;;;;;5073078;28;20047;-62
2022/12/20 01:39:13;;;;;;;8.63;4.25;;;9.10;99.90;;;;;;5072780;28;20040;-62
2022/12/20 01:41:40;;;;;;;7.28;4.00;;;9.10;99.90;;;;;;5071036;28;20101;-62
2022/12/20 01:44:25;;;;;;;8.40;4.28;;;9.10;99.90;;;;;;5071349;28;20040;-62
2022/12/20 01:46:51;;;;;;;;;;;9.10;99.90;;;;;;5065676;28;20036;-62
2022/12/20 01:49:29;;;;;;;6.93;4.00;;;9.00;99.90;;;;;;5072643;28;19926;-62
2022/12/20 01:51:59;;;;;;;8.88;4.15;;;9.00;99.90;;;;;;5054532;28;20051;-63
2022/12/20 01:54:30;;;;;;;7.65;3.80;;;9.10;99.90;;;;;;5071568;28;20036;-62
2022/12/20 01:57:04;;;;;;;10.63;4.18;;;9.00;99.90;;;;;;5072364;28;20032;-62
2022/12/20 01:59:31;;;;;;;7.03;4.13;;;9.00;99.90;;;;;;5072883;28;20094;-62
2022/12/20 02:01:58;;;;;;;7.65;4.45;;;9.00;99.90;;;;;;5064586;28;20112;-62
2022/12/20 02:04:24;;;;;;;6.32;3.42;;;9.10;99.90;;;;;;5072359;28;20102;-62
2022/12/20 02:06:50;;;;;;;7.20;3.78;;;9.10;99.90;;;;;;5071085;28;20401;-62
2022/12/20 02:09:15;;;;;;;6.45;4.00;;;9.10;99.90;;;;;;5070349;28;20076;-62
2022/12/20 02:12:07;;;;;;;8.07;3.95;;;9.10;99.90;;;;;;5072680;28;20036;-62
2022/12/20 02:14:39;;;;;;;6.68;3.70;;;9.20;99.90;;;;;;5054705;28;20477;-62
2022/12/20 02:17:16;;;;;;;6.85;3.72;;;9.20;99.90;;;;;;5069038;28;20087;-62
2022/12/20 02:20:20;;;;;;;9.35;4.43;;;9.20;99.90;;;;;;5053332;28;20520;-62
2022/12/20 02:23:00;;;;;;;7.85;4.57;;;9.20;99.90;;;;;;4970800;28;20042;-62
2022/12/20 02:25:53;;;;;;;8.55;4.30;;;9.20;99.90;;;;;;5008862;28;20057;-62
2022/12/20 02:28:51;;;;;;;7.63;4.00;;;9.20;99.90;;;;;;5034035;28;20494;-62
2022/12/20 02:31:21;;;;;;;7.82;3.97;;;9.20;99.90;;;;;;4990324;28;20504;-62
2022/12/20 02:33:48;;;;;;;9.10;4.32;;;9.20;99.90;;;;;;5046604;28;20432;-62
2022/12/20 02:36:16;;;;;;;6.18;4.13;;;9.20;99.90;;;;;;5071072;28;20393;-62
2022/12/20 02:38:43;;;;;;;7.72;3.58;;;9.20;99.90;;;;;;5055957;28;20076;-62
2022/12/20 02:41:23;;;;;;;11.18;4.90;;;9.20;99.90;;;;;;5071983;28;20047;-62
2022/12/20 02:46:38;;;;;;;8.00;3.88;;;9.20;99.90;;;;;;5072020;28;20504;-62
2022/12/20 02:49:10;;;;;;;8.57;4.60;;;9.20;99.90;;;;;;5053548;28;20508;-62
2022/12/20 02:51:36;;;;;;;7.57;3.85;;;9.20;99.90;;;;;;5053544;28;20117;-62
2022/12/20 02:54:03;;;;;;;9.13;4.20;;;9.20;99.90;;;;;;5054845;28;20040;-62
2022/12/20 02:56:42;;;;;;;8.90;3.95;;;9.20;99.90;;;;;;5054278;28;20055;-62
2022/12/20 02:59:13;;;;;;;7.93;5.03;;;9.20;99.90;;;;;;5071171;28;20037;-62
2022/12/20 03:01:44;;;;;;;7.38;4.15;;;9.20;99.90;;;;;;5071314;28;20052;-62
2022/12/20 03:04:10;;;;;;;8.27;4.10;;;9.20;99.90;;;;;;5069767;28;20041;-62
2022/12/20 03:06:36;;;;;;;7.40;4.15;;;9.10;99.90;;;;;;5070446;28;20102;-62
2022/12/20 03:09:02;;;;;;;9.43;4.10;;;9.10;99.90;;;;;;5071516;28;20040;-62
2022/12/20 03:11:27;;;;;;;6.78;4.45;;;9.10;99.90;;;;;;5070838;28;20082;-62
2022/12/20 03:13:53;;;;;;;7.60;4.10;;;9.10;99.90;;;;;;5070712;28;20044;-62
2022/12/20 03:16:18;;;;;;;6.35;3.63;;;9.00;99.90;;;;;;5070787;28;20040;-62
2022/12/20 03:18:44;;;;;;;7.88;4.32;;;9.00;99.90;;;;;;5071140;28;20405;-62
2022/12/20 03:21:11;;;;;;;8.68;4.10;;;9.00;99.90;;;;;;5068709;28;20036;-62
2022/12/20 03:23:36;;;;;;;9.10;4.20;;;9.10;99.90;;;;;;5053775;28;20036;-62
2022/12/20 03:26:02;;;;;;;6.97;4.30;;;9.10;99.90;;;;;;5052731;28;20060;-62
2022/12/20 03:28:28;;;;;;;6.47;3.72;;;9.10;99.90;;;;;;5070991;28;20114;-62
2022/12/20 03:30:53;;;;;;;6.82;4.00;;;9.10;99.90;;;;;;5040590;28;20044;-62
2022/12/20 03:33:19;;;;;;;7.70;3.75;;;9.10;99.90;;;;;;5039885;28;20040;-63
2022/12/20 03:35:46;;;;;;;7.13;4.45;;;9.10;99.90;;;;;;5073973;28;20433;-62
2022/12/20 03:38:12;;;;;;;8.57;4.93;;;9.10;99.90;;;;;;5071643;28;20040;-62
2022/12/20 03:40:38;;;;;;;7.63;4.30;;;9.10;99.90;;;;;;5073260;28;20052;-62
2022/12/20 03:43:03;;;;;;;8.82;4.55;;;9.10;99.90;;;;;;5064045;28;20156;-62
2022/12/20 03:45:29;;;;;;;8.30;3.92;;;9.20;99.90;;;;;;5075340;28;20049;-62
2022/12/20 03:47:55;;;;;;;6.07;3.60;;;9.20;99.90;;;;;;5056537;28;20040;-62
2022/12/20 03:50:21;;;;;;;6.93;4.43;;;9.20;99.90;;;;;;5056965;28;20489;-63
2022/12/20 03:52:46;;;;;;;12.95;3.78;;;9.20;99.90;;;;;;5040373;28;20041;-62
2022/12/20 03:55:12;;;;;;;7.72;4.10;;;9.20;99.90;;;;;;5072664;28;20480;-62
2022/12/20 03:57:38;;;;;;;6.68;3.95;;;9.20;99.90;;;;;;5074921;28;20047;-62
2022/12/20 04:00:05;;;;;;;7.00;4.35;;;9.30;99.90;;;;;;5074631;28;20040;-62
2022/12/20 04:02:31;;;;;;;7.85;4.20;;;9.30;99.90;;;;;;5056436;28;20070;-62
2022/12/20 04:04:57;;;;;;;7.70;4.47;;;9.40;99.90;;;;;;5073961;28;20413;-62
2022/12/20 04:07:22;;;;;;;7.55;3.85;;;9.30;99.90;;;;;;5056756;28;20067;-62
2022/12/20 04:09:48;;;;;;;6.82;3.95;;;9.30;99.90;;;;;;5073708;28;20044;-62
2022/12/20 04:12:14;;;;;;;8.40;4.57;;;9.30;99.90;;;;;;5074462;28;20032;-62
2022/12/20 04:14:39;;;;;;;7.03;4.30;;;9.30;99.90;;;;;;5056666;28;20119;-62
2022/12/20 04:17:05;;;;;;;10.15;4.43;;;9.40;99.90;;;;;;5073791;28;20036;-62
2022/12/20 04:19:31;;;;;;;6.88;4.05;;;9.40;99.90;;;;;;5073174;28;20040;-62
2022/12/20 04:21:57;;;;;;;8.38;4.70;;;9.40;99.90;;;;;;5072398;28;20055;-62
2022/12/20 04:24:23;;;;;;;8.07;4.32;;;9.40;99.90;;;;;;5074064;28;20143;-62
2022/12/20 04:26:49;;;;;;;8.02;4.55;;;9.40;99.90;;;;;;5056764;28;20127;-62
2022/12/20 04:29:15;;;;;;;10.82;4.80;;;9.30;99.90;;;;;;5055428;28;20478;-62
2022/12/20 04:31:41;;;;;;;7.80;4.10;;;9.40;99.90;;;;;;5073955;28;20025;-62
2022/12/20 04:34:06;;;;;;;10.45;4.70;;;9.40;99.90;;;;;;5074117;28;20530;-62
2022/12/20 04:36:32;;;;;;;8.05;4.85;;;9.40;99.90;;;;;;5039097;28;20473;-62
2022/12/20 04:38:58;;;;;;;9.15;4.97;;;9.40;99.90;;;;;;5056160;28;20044;-62
2022/12/20 04:41:25;;;;;;;8.15;4.63;;;9.40;99.90;;;;;;5073302;28;20051;-62
2022/12/20 04:43:54;;;;;;;8.18;4.47;;;9.40;99.90;;;;;;5055889;28;20062;-62
2022/12/20 04:46:21;;;;;;;7.32;4.57;;;9.40;99.90;;;;;;5073825;28;20485;-62
2022/12/20 04:48:47;;;;;;;7.97;3.92;;;9.50;99.90;;;;;;5055829;28;20037;-62
2022/12/20 04:51:13;;;;;;;6.72;3.95;;;9.50;99.90;;;;;;5071719;28;20032;-62
2022/12/20 04:53:47;;;;;;;8.30;4.47;;;9.50;99.90;;;;;;5074362;28;20071;-62
2022/12/20 04:56:18;;;;;;;9.07;4.05;;;9.50;99.90;;;;;;5056054;28;20136;-62
2022/12/20 04:58:45;;;;;;;7.47;4.28;;;9.50;99.90;;;;;;5073340;28;20102;-62
2022/12/20 05:01:11;;;;;;;7.90;4.55;;;9.50;99.90;;;;;;5055834;28;20066;-62
2022/12/20 05:03:38;;;;;;;8.75;4.28;;;9.50;99.90;;;;;;5056193;28;20044;-62
2022/12/20 05:06:04;;;;;;;7.03;4.22;;;9.50;99.90;;;;;;5038089;28;20040;-62
2022/12/20 05:08:30;;;;;;;8.18;4.15;;;9.50;99.90;;;;;;5073642;28;20083;-62
2022/12/20 05:10:56;;;;;;;8.45;3.75;;;9.50;99.90;;;;;;5072695;28;20508;-62
2022/12/20 05:13:21;;;;;;;9.00;4.47;;;9.50;99.90;;;;;;5073072;28;20052;-62
2022/12/20 05:15:54;;;;;;;7.05;4.32;;;9.40;99.90;;;;;;5072110;28;20036;-62
2022/12/20 05:18:20;;;;;;;7.10;4.22;;;9.50;99.90;;;;;;5072758;28;20089;-62
2022/12/20 05:20:46;;;;;;;8.15;4.50;;;9.50;99.90;;;;;;5071714;28;20048;-62
2022/12/20 05:28:40;;;;;;;8.63;4.82;;;9.50;99.90;;;;;;5071841;28;20044;-62
2022/12/20 05:31:06;;;;;;;7.30;4.13;;;9.50;99.90;;;;;;5072973;28;20441;-62
2022/12/20 05:33:31;;;;;;;7.13;3.72;;;9.50;99.90;;;;;;5070970;28;20123;-62
2022/12/20 05:35:57;;;;;;;8.23;4.20;;;9.50;99.90;;;;;;5071598;28;20075;-62
2022/12/20 05:38:23;;;;;;;6.85;4.05;;;9.60;99.90;;;;;;5071723;28;20308;-62
2022/12/20 05:40:50;;;;;;;6.90;4.20;;;9.60;99.90;;;;;;5066782;28;20074;-62
2022/12/20 05:43:16;;;;;;;9.63;4.38;;;9.60;99.90;;;;;;5054810;28;20048;-61
2022/12/20 05:45:50;;;;;;;8.48;4.43;;;9.60;99.90;;;;;;5038065;28;20048;-62
2022/12/20 05:48:17;;;;;;;7.35;3.75;;;9.60;99.90;;;;;;5054489;28;20048;-62
2022/12/20 05:50:44;;;;;;;8.52;4.32;;;9.60;99.90;;;;;;5072595;28;20044;-62
2022/12/20 05:53:15;;;;;;;7.65;4.28;;;9.60;99.90;;;;;;5053081;28;20048;-62
2022/12/20 05:55:49;;;;;;;8.57;4.65;;;9.60;99.90;;;;;;5055147;28;20422;-62
2022/12/20 05:58:14;;;;;;;11.20;6.43;;;9.70;99.90;;;;;;5072556;28;20055;-62
2022/12/20 06:00:42;;;;;;;9.57;5.40;;;9.70;99.90;;;;;;5070745;28;20045;-62
2022/12/20 06:03:08;;;;;;;10.65;5.32;;;9.70;99.90;;;;;;5072549;28;20040;-62
2022/12/20 06:05:38;;;;;;;8.07;4.45;;;9.70;99.90;;;;;;5072696;28;20133;-62
2022/12/20 06:08:05;;;;;;;6.60;3.80;;;9.70;99.90;;;;;;5071441;28;20397;-62
2022/12/20 06:10:33;;;;;;;7.28;4.45;;;9.70;99.90;;;;;;5059804;28;20389;-62
2022/12/20 06:13:00;;;;;;;8.55;4.60;;;9.70;99.90;;;;;;5061146;28;20478;-62
2022/12/20 06:15:25;;;;;;;7.80;4.50;;;9.80;99.90;;;;;;5037932;28;20032;-62
2022/12/20 06:17:51;;;;;;;7.97;4.05;;;9.70;99.90;;;;;;5054615;28;20443;-62
2022/12/20 06:20:17;;;;;;;8.70;4.25;;;9.80;99.90;;;;;;5070826;28;20090;-62
2022/12/20 06:22:43;;;;;;;8.88;4.53;;;9.80;99.90;;;;;;5071666;28;20036;-62
2022/12/20 06:25:08;;;;;;;7.43;3.72;;;9.80;99.90;;;;;;5070763;28;20052;-62
2022/12/20 06:27:35;;;;;;;8.60;3.95;;;9.80;99.90;;;;;;5071328;28;20080;-62
2022/12/20 06:30:04;;;;;;;7.40;3.67;;;9.80;99.90;;;;;;5071192;28;20079;-62
2022/12/20 06:32:30;;;;;;;8.77;4.40;;;9.80;99.90;;;;;;5054212;28;20076;-62
2022/12/20 06:34:56;;;;;;;8.80;3.80;;;9.80;99.90;;;;;;5054074;28;20067;-62
2022/12/20 06:37:21;;;;;;;7.07;3.88;;;9.90;99.90;;;;;;5053710;28;20105;-62
2022/12/20 06:39:47;;;;;;;6.88;3.75;;;9.90;99.90;;;;;;5070654;28;20462;-62
2022/12/20 06:42:13;;;;;;;7.82;3.90;;;9.90;99.90;;;;;;5069524;28;20051;-62
2022/12/20 06:44:39;;;;;;;9.50;4.75;;;9.90;99.90;;;;;;5071252;28;20477;-62
2022/12/20 06:47:04;;;;;;;8.52;4.25;;;9.90;99.90;;;;;;5071564;28;20119;-62
2022/12/20 06:49:30;;;;;;;7.07;3.92;;;9.90;99.90;;;;;;5071277;28;20040;-62
2022/12/20 06:51:56;;;;;;;8.50;4.55;;;9.90;99.90;;;;;;5053850;28;20044;-62
2022/12/20 06:54:21;;;;;;;9.35;4.72;;;9.90;99.90;;;;;;5071178;28;20052;-62
2022/12/20 06:56:47;;;;;;;7.30;4.72;;;10.00;99.90;;;;;;5053188;28;20045;-62
2022/12/20 06:59:13;;;;;;;7.63;4.63;;;10.00;99.90;;;;;;5053864;28;20040;-62
2022/12/20 07:01:38;;;;;;;8.95;4.95;;;10.00;99.90;;;;;;5071856;28;20041;-62
2022/12/20 07:04:04;;;;;;;7.75;4.65;;;9.90;99.90;;;;;;5070717;28;20029;-62
2022/12/20 07:06:30;;;;;;;9.45;4.78;;;9.90;99.90;;;;;;5075695;28;20036;-62
2022/12/20 07:08:55;;;;;;;10.05;5.43;;;10.00;99.90;;;;;;5074925;28;20044;-62
2022/12/20 07:11:21;;;;;;;6.85;4.55;;;10.00;99.90;;;;;;5073478;28;20044;-62
2022/12/20 07:13:49;;;;;;;7.50;4.70;;;10.00;99.90;;;;;;5074432;28;20125;-62
2022/12/20 07:16:15;;;;;;;8.55;5.28;;;10.00;99.90;;;;;;5066607;28;20048;-62
2022/12/20 07:18:40;;;;;;;8.10;4.90;;;10.00;99.90;;;;;;5075129;28;20033;-62
2022/12/20 07:21:06;;;;;;;11.05;5.07;;;10.00;99.90;;;;;;5074058;28;20128;-62
2022/12/20 07:23:32;;;;;;;7.75;4.85;;;9.90;99.90;;;;;;5070760;28;20060;-62
2022/12/20 07:25:59;;;;;;;8.18;5.78;;;9.90;99.90;;;;;;5070125;28;20070;-63
2022/12/20 07:28:26;;;;;;;7.45;4.43;;;9.90;99.90;;;;;;5057577;28;20116;-62
2022/12/20 07:30:53;;;;;;;8.80;5.70;;;9.80;99.90;;;;;;5073819;28;20048;-62
2022/12/20 07:33:19;;;;;;;15.07;5.82;;;9.80;99.90;;;;;;5056483;28;20036;-62
2022/12/20 07:35:45;;;;;;;9.85;5.88;;;9.80;99.90;;;;;;5075011;28;20093;-62
2022/12/20 07:38:14;;;;;;;10.40;6.22;;;9.80;99.90;;;;;;5074848;28;20081;-62
2022/12/20 07:40:41;;;;;;;8.73;5.40;;;9.80;99.90;;;;;;5036860;28;20037;-62
2022/12/20 07:43:09;;;;;;;7.80;5.63;;;9.80;99.90;;;;;;5050908;28;20036;-62
2022/12/20 07:45:36;;;;;;;10.57;5.55;;;9.70;99.90;;;;;;5056148;28;20048;-62
2022/12/20 07:48:06;;;;;;;8.70;5.50;;;9.70;99.90;;;;;;5060370;28;20048;-62
2022/12/20 07:50:33;;;;;;;8.88;5.43;;;9.70;99.90;;;;;;5038204;28;20032;-62
2022/12/20 07:53:00;;;;;;;10.63;5.93;;;9.70;99.90;;;;;;5053972;28;20032;-61
2022/12/20 07:55:28;;;;;;;9.55;5.70;;;9.70;99.90;;;;;;5054621;28;20040;-62
2022/12/20 07:58:03;;;;;;;8.85;6.05;;;9.70;99.90;;;;;;5054860;28;20049;-62
2022/12/20 08:00:30;;;;;;;8.43;4.30;;;9.70;99.90;;;;;;5065972;28;20047;-63
2022/12/20 08:03:02;;;;;;;8.95;5.57;;;9.70;99.90;;;;;;5071577;28;20041;-62
2022/12/20 08:05:28;;;;;;;13.15;5.15;;;9.70;99.90;;;;;;5071857;28;20071;-62
2022/12/20 08:07:57;;;;;;;8.75;5.30;;;9.80;99.90;;;;;;5070625;28;20499;-62
2022/12/20 08:10:23;;;;;;;8.25;5.07;;;9.80;99.90;;;;;;5072107;28;20105;-62
2022/12/20 08:12:49;;;;;;;9.40;5.45;;;9.80;99.90;;;;;;5067207;28;20048;-62
2022/12/20 08:15:15;;;;;;;10.30;5.15;;;9.80;99.90;;;;;;5036004;28;20075;-62
2022/12/20 08:17:40;;;;;;;9.27;4.95;;;9.80;99.90;;;;;;5088248;28;20099;-62
2022/12/20 08:20:07;;;;;;;6.82;4.45;;;9.80;99.90;;;;;;5062208;28;20540;-62
2022/12/20 08:22:34;;;;;;;9.75;4.65;;;9.90;99.90;;;;;;5052895;28;20117;-62
2022/12/20 08:24:59;;;;;;;6.53;3.95;;;9.90;99.90;;;;;;5036964;28;20450;-62
2022/12/20 08:27:25;;;;;;;7.82;4.53;;;9.90;99.90;;;;;;5053212;28;20052;-62
2022/12/20 08:29:51;;;;;;;7.32;4.10;;;10.00;99.90;;;;;;5070689;28;20052;-62
2022/12/20 08:32:17;;;;;;;9.70;4.90;;;9.90;99.90;;;;;;5053144;28;20052;-62
2022/12/20 08:34:43;;;;;;;7.65;4.25;;;9.90;99.90;;;;;;5056763;28;20056;-62
2022/12/20 08:37:08;;;;;;;7.57;3.85;;;10.00;99.90;;;;;;5069518;28;20068;-62
2022/12/20 08:39:34;;;;;;;6.95;4.57;;;9.90;99.90;;;;;;5052960;28;20101;-62
2022/12/20 08:42:00;;;;;;;7.75;4.53;;;9.90;99.90;;;;;;5070364;28;20041;-62
2022/12/20 08:44:25;;;;;;;8.68;4.68;;;9.90;99.90;;;;;;5069737;28;20512;-62
2022/12/20 08:46:52;;;;;;;8.95;4.18;;;9.90;99.90;;;;;;5064930;28;20844;-62
2022/12/20 08:49:18;;;;;;;7.18;4.53;;;9.90;99.90;;;;;;5070077;28;20045;-62
2022/12/20 08:51:44;;;;;;;6.47;3.65;;;9.90;99.90;;;;;;5059338;28;20048;-62
2022/12/20 08:54:10;;;;;;;7.40;3.78;;;10.00;99.90;;;;;;5090758;28;20106;-62
2022/12/20 08:56:35;;;;;;;6.82;4.57;;;10.00;99.90;;;;;;5071992;28;20036;-62
2022/12/20 08:59:02;;;;;;;8.25;4.00;;;10.00;99.90;;;;;;5062733;28;20044;-62
2022/12/20 09:01:29;;;;;;;7.80;3.80;;;10.10;99.90;;;;;;5056402;28;20040;-62
2022/12/20 09:03:55;;;;;;;7.20;4.20;;;10.10;99.90;;;;;;5057653;28;20102;-62
2022/12/20 09:06:21;;;;;;;5.90;3.78;;;10.20;99.90;;;;;;5052476;28;20500;-62
2022/12/20 09:08:47;;;;;;;6.43;3.50;;;10.20;99.90;;;;;;5057023;28;20086;-63
2022/12/20 09:11:22;;;;;;;6.63;3.67;;;10.20;99.90;;;;;;5056200;28;20072;-63
2022/12/20 09:13:50;;;;;;;6.10;3.50;;;10.20;99.90;;;;;;5070724;28;20040;-62
2022/12/20 09:16:18;;;;;;;7.03;3.67;;;10.20;99.90;;;;;;5071082;28;20518;-62
2022/12/20 09:18:50;;;;;;;6.93;3.60;;;10.30;99.90;;;;;;5057050;28;20166;-62
2022/12/20 09:21:17;;;;;;;8.15;3.35;;;10.20;99.90;;;;;;5053136;28;20052;-62
2022/12/20 09:23:42;;;;;;;9.65;4.28;;;10.20;99.90;;;;;;5057983;28;20044;-62
2022/12/20 09:26:13;;;;;;;7.60;3.72;;;10.30;99.90;;;;;;5059857;28;20060;-62
2022/12/20 09:28:41;;;;;;;5.75;3.30;;;10.30;99.90;;;;;;5069887;28;20072;-62
2022/12/20 09:31:14;;;;;;;7.70;4.32;;;10.30;99.90;;;;;;5069598;28;20055;-62
2022/12/20 09:33:41;;;;;;;7.60;4.05;;;10.40;99.90;;;;;;5035847;28;20049;-62
2022/12/20 09:36:13;;;;;;;8.77;3.30;;;10.40;99.90;;;;;;5050576;28;20044;-62
2022/12/20 09:38:39;;;;;;;7.45;3.50;;;10.40;99.90;;;;;;5051336;28;20518;-62
2022/12/20 09:41:08;;;;;;;7.47;3.42;;;10.50;99.90;;;;;;5047583;28;20041;-62
2022/12/20 09:43:35;;;;;;;7.00;3.40;;;10.40;99.90;;;;;;5032325;28;20056;-62
2022/12/20 09:46:02;;;;;;;6.72;3.10;;;10.50;99.90;;;;;;5050603;28;20044;-62
2022/12/20 09:48:34;;;;;;;7.15;3.10;;;10.50;99.90;;;;;;5068478;28;20058;-62
2022/12/20 09:51:09;;;;;;;6.80;3.25;;;10.50;99.90;;;;;;5069488;28;20079;-62
2022/12/20 09:53:59;;;;;;;6.95;3.10;;;10.50;99.90;;;;;;5065674;28;20041;-62
2022/12/20 09:56:45;;;;;;;5.65;2.70;;;10.50;99.90;;;;;;5051740;28;20040;-62
2022/12/20 09:59:18;;;;;;;6.47;2.60;;;10.50;99.90;;;;;;5050658;28;20131;-62
2022/12/20 10:01:49;;;;;;;7.47;3.40;;;10.50;99.90;;;;;;5051641;28;20044;-62
2022/12/20 10:04:30;;;;;;;7.95;3.38;;;10.40;99.90;;;;;;5067475;28;20055;-62
2022/12/20 10:07:25;;;;;;;6.22;3.50;;;10.50;99.90;;;;;;5034256;28;20036;-62
2022/12/20 10:09:57;;;;;;;;;;;10.40;99.90;;;;;;5064111;28;20040;-62
2022/12/20 10:12:39;;;;;;;6.40;3.40;;;10.40;99.90;;;;;;5034438;28;19921;-62
2022/12/20 10:15:14;;;;;;;8.95;3.53;;;10.40;99.90;;;;;;5033732;28;20048;-62
2022/12/20 10:18:12;;;;;;;6.30;2.65;;;10.40;99.90;;;;;;5049008;28;20123;-61
2022/12/20 10:20:44;;;;;;;5.68;3.20;;;10.50;99.90;;;;;;5048665;28;20048;-61
2022/12/20 10:23:36;;;;;;;7.20;3.10;;;10.50;99.90;;;;;;5064427;28;20068;-63
2022/12/20 10:26:07;;;;;;;7.35;3.35;;;10.50;99.90;;;;;;5054853;28;20756;-62
2022/12/20 10:28:34;;;;;;;8.50;3.42;;;10.50;99.90;;;;;;5053888;28;20039;-62
2022/12/20 10:31:11;;;;;;;6.25;2.90;;;10.50;99.90;;;;;;5072035;28;20036;-62
2022/12/20 10:33:37;;;;;;;5.82;2.63;;;10.50;99.90;;;;;;5072253;28;20029;-63
2022/12/20 10:36:25;;;;;;;6.57;3.50;;;10.50;99.90;;;;;;5053199;28;20500;-62
2022/12/20 10:38:53;;;;;;;5.53;3.00;;;10.50;99.90;;;;;;5053651;28;20044;-62
2022/12/20 10:41:25;;;;;;;5.72;3.20;;;10.50;99.90;;;;;;5052974;28;20125;-62
2022/12/20 10:44:01;;;;;;;7.88;3.13;;;10.50;99.90;;;;;;5054027;28;20052;-62
2022/12/20 10:46:43;;;;;;;7.35;3.38;;;10.50;99.90;;;;;;5054066;28;20129;-62
2022/12/20 10:49:35;;;;;;;8.20;3.17;;;10.50;99.90;;;;;;5053203;28;20177;-61
2022/12/20 10:52:07;;;;;;;6.97;2.67;;;10.50;99.90;;;;;;5053978;28;20036;-61
2022/12/20 10:54:44;;;;;;;7.63;3.00;;;10.50;99.90;;;;;;5072146;28;20485;-62
2022/12/20 10:57:19;;;;;;;7.15;3.20;;;10.50;99.90;;;;;;5071002;28;20036;-62
2022/12/20 10:59:51;;;;;;;5.55;3.00;;;10.50;99.90;;;;;;5053895;28;20123;-62
2022/12/20 11:02:34;;;;;;;6.85;3.25;;;10.50;99.90;;;;;;5053534;28;20049;-62
2022/12/20 11:05:13;;;;;;;7.40;3.30;;;10.50;99.90;;;;;;5053923;28;20040;-61
2022/12/20 11:08:05;;;;;;;6.20;2.90;;;10.50;99.90;;;;;;5054029;28;20559;-62
2022/12/20 11:10:32;;;;;;;6.50;3.20;;;10.60;99.90;;;;;;5052944;28;20063;-62
2022/12/20 11:13:00;;;;;;;6.32;2.60;;;10.50;99.90;;;;;;5053656;28;20043;-61
2022/12/20 11:15:31;;;;;;;6.53;2.88;;;10.50;99.90;;;;;;5053888;28;20064;-62
2022/12/20 11:18:08;;;;;;;4.85;2.90;;;10.50;99.90;;;;;;5070486;28;20044;-62
2022/12/20 11:20:57;;;;;;;4.90;2.53;;;10.60;99.90;;;;;;5054137;28;20548;-61
2022/12/20 11:23:28;;;;;;;5.85;3.47;;;10.50;99.90;;;;;;5036991;28;20098;-62
2022/12/20 11:26:15;;;;;;;8.18;3.55;;;10.50;99.90;;;;;;5069866;28;20067;-62
2022/12/20 11:28:59;;;;;;;6.80;3.30;;;10.50;99.90;;;;;;5070438;28;20052;-61
2022/12/20 11:31:54;;;;;;;8.25;3.85;;;10.50;99.90;;;;;;5052499;28;20048;-62
2022/12/20 11:34:43;;;;;;;10.13;4.10;;;10.50;99.90;;;;;;5071448;28;20489;-62
2022/12/20 11:37:18;;;;;;;6.93;3.83;;;10.50;99.90;;;;;;5053479;28;20071;-62
2022/12/20 11:39:56;;;;;;;9.55;4.43;;;10.50;99.90;;;;;;5069189;28;20052;-62
2022/12/20 11:42:47;;;;;;;8.27;4.18;;;10.50;99.90;;;;;;5071134;28;20087;-62
2022/12/20 11:46:08;;;;;;;7.28;3.97;;;10.50;99.90;;;;;;5052358;28;20071;-62
2022/12/20 11:49:02;;;;;;;8.13;4.28;;;10.50;99.90;;;;;;4990133;28;20116;-62
2022/12/20 11:51:28;;;;;;;7.00;4.47;;;10.50;99.90;;;;;;4988760;28;20068;-62
2022/12/20 11:54:03;;;;;;;8.82;4.00;;;10.50;99.90;;;;;;5046150;28;20065;-62
2022/12/20 11:56:31;;;;;;;;;;;10.50;99.90;;;;;;5057473;28;20052;-62
2022/12/20 11:59:01;;;;;;;9.93;4.50;;;10.40;99.90;;;;;;5072974;28;20402;-62
2022/12/20 12:01:36;;;;;;;8.07;4.78;;;10.40;99.90;;;;;;5074611;28;20051;-62
2022/12/20 12:04:18;;;;;;;8.73;4.70;;;10.50;99.90;;;;;;5056756;28;20048;-62
2022/12/20 12:06:58;;;;;;;9.20;4.88;;;10.40;99.90;;;;;;5073793;28;20076;-62
2022/12/20 12:09:39;;;;;;;7.80;4.47;;;10.40;99.90;;;;;;5074627;28;20060;-62
2022/12/20 12:12:21;;;;;;;7.30;4.93;;;10.40;99.90;;;;;;5056539;28;20044;-62
2022/12/20 12:15:21;;;;;;;10.15;5.38;;;10.30;99.90;;;;;;5073648;28;20032;-62
2022/12/20 12:18:05;;;;;;;7.78;5.35;;;10.30;99.90;;;;;;5056755;28;20098;-62
2022/12/20 12:20:39;;;;;;;7.93;5.13;;;10.30;99.90;;;;;;5073767;28;20037;-62
2022/12/20 12:23:20;;;;;;;10.90;6.43;;;10.30;99.90;;;;;;5056271;28;20123;-62
2022/12/20 12:25:46;;;;;;;10.23;5.10;;;10.30;99.90;;;;;;5056334;28;20084;-62
2022/12/20 12:28:13;;;;;;;11.18;6.15;;;10.30;99.90;;;;;;5073396;28;20481;-62
2022/12/20 12:31:09;;;;;;;9.68;6.03;;;10.30;99.90;;;;;;5074227;28;20040;-62
2022/12/20 12:34:01;;;;;;;8.82;5.72;;;10.30;99.90;;;;;;5053288;28;20071;-62
2022/12/20 12:36:30;;;;;;;10.55;6.57;;;10.30;99.90;;;;;;5019364;28;20498;-62
2022/12/20 12:39:27;;;;;;;8.60;6.10;;;10.40;99.90;;;;;;5073940;28;20433;-62
2022/12/20 12:42:09;;;;;;;10.05;6.25;;;10.40;99.90;;;;;;4986831;28;20049;-62
2022/12/20 12:44:58;;;;;;;10.25;6.00;;;10.30;99.90;;;;;;5074189;28;20040;-62
2022/12/20 12:47:44;;;;;;;9.27;5.88;;;10.40;99.90;;;;;;5056174;28;20413;-62
2022/12/20 12:50:47;;;;;;;14.27;7.45;;;10.40;99.90;;;;;;5071513;28;20537;-63
2022/12/20 12:53:32;;;;;;;9.43;5.90;;;10.40;99.90;;;;;;5053724;28;20406;-62
2022/12/20 12:56:18;;;;;;;10.18;6.32;;;10.40;99.90;;;;;;5071783;28;20033;-62
2022/12/20 12:59:10;;;;;;;10.88;6.78;;;10.40;99.90;;;;;;5055487;28;20044;-63
2022/12/20 13:01:47;;;;;;;11.10;7.45;;;10.40;99.90;;;;;;5072697;28;20051;-62
2022/12/20 13:04:18;;;;;;;10.18;6.50;;;10.40;99.90;;;;;;5071232;28;20068;-62
2022/12/20 13:06:47;;;;;;;12.52;7.15;;;10.40;99.90;;;;;;5066335;28;20056;-62
2022/12/20 13:09:25;;;;;;;11.60;7.50;;;10.40;99.90;;;;;;5062713;28;20044;-62
2022/12/20 13:11:55;;;;;;;10.35;7.03;;;10.50;99.90;;;;;;5055333;28;20052;-62
2022/12/20 13:14:24;;;;;;;10.75;6.25;;;10.50;99.90;;;;;;5055910;28;20513;-62
2022/12/20 13:17:18;;;;;;;10.35;6.43;;;10.50;99.90;;;;;;5054706;28;20043;-62
2022/12/20 13:19:53;;;;;;;11.07;6.93;;;10.50;99.90;;;;;;5035839;28;20052;-62